createdAt,value
2023-04-11T00:00:51.080Z,95165.00
2023-04-11T00:01:51.159Z,95167.00
2023-04-11T00:02:51.206Z,95167.00
2023-04-11T00:03:51.195Z,95169.00
2023-04-11T00:04:51.089Z,95169.00
2023-04-11T00:05:51.060Z,95163.00
2023-04-11T00:06:51.042Z,95159.00
2023-04-11T00:07:51.039Z,95153.00
2023-04-11T00:08:51.037Z,95153.00
2023-04-11T00:09:51.036Z,95149.00
2023-04-11T00:10:51.165Z,95137.00
2023-04-11T00:11:51.033Z,95133.00
2023-04-11T00:12:51.046Z,95135.00
2023-04-11T00:13:51.027Z,95135.00
2023-04-11T00:14:51.023Z,95139.00
2023-04-11T00:15:51.023Z,95137.00
2023-04-11T00:16:51.111Z,95149.00
2023-04-11T00:17:51.032Z,95149.00
2023-04-11T00:18:51.014Z,95147.00
2023-04-11T00:19:57.995Z,95147.00
2023-04-11T00:20:51.038Z,95139.00
2023-04-11T00:21:51.045Z,95137.00
2023-04-11T00:22:51.049Z,95135.00
2023-04-11T00:23:51.054Z,95131.00
2023-04-11T00:24:51.034Z,95125.00
2023-04-11T00:25:51.024Z,95124.00
2023-04-11T00:26:51.050Z,95118.00
2023-04-11T00:27:51.018Z,95116.00
2023-04-11T00:28:50.999Z,95114.00
2023-04-11T00:29:50.993Z,95112.00
2023-04-11T00:30:50.981Z,95106.00
2023-04-11T00:31:51.554Z,95104.00
2023-04-11T00:32:51.028Z,95098.00
2023-04-11T00:33:50.938Z,95092.00
2023-04-11T00:34:50.925Z,95090.00
2023-04-11T00:35:50.992Z,95090.00
2023-04-11T00:36:51.020Z,95096.00
2023-04-11T00:37:50.888Z,95098.00
2023-04-11T00:38:50.885Z,95100.00
2023-04-11T00:39:50.867Z,95102.00
2023-04-11T00:40:50.862Z,95102.00
2023-04-11T00:41:50.858Z,95100.00
2023-04-11T00:42:50.935Z,95096.00
2023-04-11T00:43:50.852Z,95092.00
2023-04-11T00:44:50.842Z,95088.00
2023-04-11T00:45:50.881Z,95086.00
2023-04-11T00:46:50.834Z,95086.00
2023-04-11T00:47:50.917Z,95088.00
2023-04-11T00:48:50.826Z,95088.00
2023-04-11T00:49:50.810Z,95086.00
2023-04-11T00:50:50.799Z,95086.00
2023-04-11T00:51:50.802Z,95086.00
2023-04-11T00:52:50.795Z,95086.00
2023-04-11T00:53:50.781Z,95088.00
2023-04-11T00:54:50.784Z,95086.00
2023-04-11T00:55:50.770Z,95086.00
2023-04-11T00:56:50.751Z,95086.00
2023-04-11T00:57:50.742Z,95088.00
2023-04-11T00:58:50.773Z,95090.00
2023-04-11T00:59:50.736Z,95090.00
2023-04-11T01:00:50.757Z,95090.00
2023-04-11T01:01:50.937Z,95088.00
2023-04-11T01:02:50.838Z,95088.00
2023-04-11T01:03:50.864Z,95086.00
2023-04-11T01:04:50.723Z,95082.00
2023-04-11T01:05:50.727Z,95080.00
2023-04-11T01:06:50.733Z,95078.00
2023-04-11T01:07:50.736Z,95080.00
2023-04-11T01:08:50.732Z,95080.00
2023-04-11T01:09:50.724Z,95084.00
2023-04-11T01:10:50.733Z,95082.00
2023-04-11T01:11:50.751Z,95078.00
2023-04-11T01:12:50.724Z,95080.00
2023-04-11T01:13:50.738Z,95080.00
2023-04-11T01:14:51.705Z,95078.00
2023-04-11T01:15:50.726Z,95080.00
2023-04-11T01:16:50.845Z,95082.00
2023-04-11T01:17:50.739Z,95084.00
2023-04-11T01:18:50.716Z,95086.00
2023-04-11T01:19:50.696Z,95084.00
2023-04-11T01:20:50.706Z,95086.00
2023-04-11T01:21:50.691Z,95082.00
2023-04-11T01:22:50.696Z,95078.00
2023-04-11T01:23:50.691Z,95075.00
2023-04-11T01:24:50.689Z,95071.00
2023-04-11T01:25:50.685Z,95069.00
2023-04-11T01:26:50.679Z,95065.00
2023-04-11T01:27:50.658Z,95063.00
2023-04-11T01:28:50.657Z,95063.00
2023-04-11T01:29:50.639Z,95065.00
2023-04-11T01:30:50.704Z,95065.00
2023-04-11T01:31:50.621Z,95067.00
2023-04-11T01:32:50.666Z,95069.00
2023-04-11T01:33:50.590Z,95067.00
2023-04-11T01:34:50.577Z,95061.00
2023-04-11T01:35:50.624Z,95055.00
2023-04-11T01:36:50.557Z,95047.00
2023-04-11T01:37:50.564Z,95041.00
2023-04-11T01:38:50.538Z,95039.00
2023-04-11T01:39:50.520Z,95037.00
2023-04-11T01:40:50.504Z,95039.00
2023-04-11T01:41:50.491Z,95039.00
2023-04-11T01:42:50.488Z,95039.00
2023-04-11T01:43:50.472Z,95037.00
2023-04-11T01:44:50.464Z,95035.00
2023-04-11T01:45:50.460Z,95030.00
2023-04-11T01:46:50.466Z,95028.00
2023-04-11T01:47:51.038Z,95024.00
2023-04-11T01:48:50.610Z,95024.00
2023-04-11T01:49:50.404Z,95024.00
2023-04-11T01:50:50.398Z,95026.00
2023-04-11T01:51:50.389Z,95030.00
2023-04-11T01:52:50.380Z,95035.00
2023-04-11T01:53:50.361Z,95037.00
2023-04-11T01:54:50.332Z,95041.00
2023-04-11T01:55:50.326Z,95043.00
2023-04-11T01:56:50.313Z,95043.00
2023-04-11T01:57:50.284Z,95047.00
2023-04-11T01:58:50.251Z,95049.00
2023-04-11T01:59:50.227Z,95053.00
2023-04-11T02:00:50.215Z,95057.00
2023-04-11T02:01:50.243Z,95059.00
2023-04-11T02:02:50.392Z,95061.00
2023-04-11T02:03:50.252Z,95059.00
2023-04-11T02:04:50.169Z,95057.00
2023-04-11T02:05:50.149Z,95049.00
2023-04-11T02:06:50.142Z,95047.00
2023-04-11T02:07:50.124Z,95045.00
2023-04-11T02:08:50.123Z,95047.00
2023-04-11T02:09:50.102Z,95051.00
2023-04-11T02:10:50.099Z,95051.00
2023-04-11T02:11:50.084Z,95055.00
2023-04-11T02:12:50.076Z,95059.00
2023-04-11T02:13:50.057Z,95063.00
2023-04-11T02:14:50.056Z,95059.00
2023-04-11T02:15:50.068Z,95057.00
2023-04-11T02:16:50.031Z,95057.00
2023-04-11T02:17:50.036Z,95057.00
2023-04-11T02:18:50.024Z,95063.00
2023-04-11T02:19:49.986Z,95065.00
2023-04-11T02:20:49.979Z,95069.00
2023-04-11T02:21:49.968Z,95069.00
2023-04-11T02:22:49.954Z,95069.00
2023-04-11T02:23:49.948Z,95069.00
2023-04-11T02:24:49.932Z,95073.00
2023-04-11T02:25:49.925Z,95078.00
2023-04-11T02:26:49.917Z,95077.00
2023-04-11T02:27:49.899Z,95073.00
2023-04-11T02:28:49.906Z,95073.00
2023-04-11T02:29:49.900Z,95069.00
2023-04-11T02:30:49.920Z,95071.00
2023-04-11T02:31:49.990Z,95069.00
2023-04-11T02:32:49.868Z,95063.00
2023-04-11T02:33:49.839Z,95053.00
2023-04-11T02:34:49.845Z,95047.00
2023-04-11T02:35:49.904Z,95041.00
2023-04-11T02:36:49.791Z,95043.00
2023-04-11T02:37:49.796Z,95047.00
2023-04-11T02:38:49.794Z,95047.00
2023-04-11T02:39:49.784Z,95049.00
2023-04-11T02:40:49.777Z,95045.00
2023-04-11T02:41:49.782Z,95041.00
2023-04-11T02:42:49.788Z,95043.00
2023-04-11T02:43:49.778Z,95043.00
2023-04-11T02:44:49.800Z,95043.00
2023-04-11T02:45:50.964Z,95039.00
2023-04-11T02:46:49.852Z,95035.00
2023-04-11T02:47:49.834Z,95035.00
2023-04-11T02:48:49.756Z,95035.00
2023-04-11T02:49:49.729Z,95035.00
2023-04-11T02:50:49.738Z,95035.00
2023-04-11T02:51:49.694Z,95033.00
2023-04-11T02:52:49.693Z,95030.00
2023-04-11T02:53:49.656Z,95028.00
2023-04-11T02:54:49.629Z,95028.00
2023-04-11T02:55:49.612Z,95026.00
2023-04-11T02:56:49.580Z,95020.00
2023-04-11T02:57:49.564Z,95016.00
2023-04-11T02:58:49.545Z,95010.00
2023-04-11T02:59:49.522Z,95004.00
2023-04-11T03:00:49.504Z,94996.00
2023-04-11T03:01:49.588Z,94996.00
2023-04-11T03:02:49.574Z,94996.00
2023-04-11T03:03:49.506Z,94998.00
2023-04-11T03:04:49.444Z,95004.00
2023-04-11T03:05:49.428Z,95008.00
2023-04-11T03:06:49.442Z,95008.00
2023-04-11T03:07:49.413Z,95012.00
2023-04-11T03:08:49.399Z,95012.00
2023-04-11T03:09:49.368Z,95004.00
2023-04-11T03:10:49.361Z,95002.00
2023-04-11T03:11:49.345Z,95000.00
2023-04-11T03:12:49.335Z,95004.00
2023-04-11T03:13:49.323Z,95004.00
2023-04-11T03:14:49.314Z,95008.00
2023-04-11T03:15:49.347Z,95008.00
2023-04-11T03:16:49.274Z,95008.00
2023-04-11T03:17:49.265Z,95006.00
2023-04-11T03:18:49.250Z,95000.00
2023-04-11T03:19:49.233Z,94996.00
2023-04-11T03:20:49.227Z,94988.00
2023-04-11T03:21:49.216Z,94988.00
2023-04-11T03:22:49.232Z,94984.00
2023-04-11T03:23:49.194Z,94986.00
2023-04-11T03:24:49.179Z,94982.00
2023-04-11T03:25:49.186Z,94980.00
2023-04-11T03:26:49.164Z,94980.00
2023-04-11T03:27:49.177Z,94978.00
2023-04-11T03:28:49.138Z,94978.00
2023-04-11T03:29:49.124Z,94975.00
2023-04-11T03:30:49.105Z,94973.00
2023-04-11T03:31:49.181Z,94967.00
2023-04-11T03:32:49.148Z,94965.00
2023-04-11T03:33:49.091Z,94959.00
2023-04-11T03:34:49.063Z,94957.00
2023-04-11T03:35:49.060Z,94957.00
2023-04-11T03:36:49.035Z,94961.00
2023-04-11T03:37:49.023Z,94965.00
2023-04-11T03:38:49.031Z,94967.00
2023-04-11T03:39:48.999Z,94969.00
2023-04-11T03:40:48.993Z,94969.00
2023-04-11T03:41:49.010Z,94965.00
2023-04-11T03:42:48.965Z,94963.00
2023-04-11T03:43:48.959Z,94965.00
2023-04-11T03:44:48.949Z,94963.00
2023-04-11T03:45:48.938Z,94965.00
2023-04-11T03:46:48.941Z,94967.00
2023-04-11T03:47:48.967Z,94965.00
2023-04-11T03:48:48.918Z,94965.00
2023-04-11T03:49:48.923Z,94961.00
2023-04-11T03:50:48.909Z,94959.00
2023-04-11T03:51:48.901Z,94957.00
2023-04-11T03:52:48.883Z,94957.00
2023-04-11T03:53:48.880Z,94959.00
2023-04-11T03:54:48.901Z,94955.00
2023-04-11T03:55:48.887Z,94951.00
2023-04-11T03:56:48.871Z,94947.00
2023-04-11T03:57:48.868Z,94945.00
2023-04-11T03:58:48.869Z,94947.00
2023-04-11T03:59:48.859Z,94943.00
2023-04-11T04:00:48.846Z,94943.00
2023-04-11T04:01:48.905Z,94941.00
2023-04-11T04:02:49.073Z,94937.00
2023-04-11T04:03:49.031Z,94933.00
2023-04-11T04:04:49.029Z,94931.00
2023-04-11T04:05:48.815Z,94929.00
2023-04-11T04:06:48.802Z,94926.00
2023-04-11T04:07:48.811Z,94924.00
2023-04-11T04:08:48.802Z,94924.00
2023-04-11T04:09:48.790Z,94920.00
2023-04-11T04:10:48.809Z,94922.00
2023-04-11T04:11:48.771Z,94922.00
2023-04-11T04:12:48.770Z,94922.00
2023-04-11T04:13:48.769Z,94920.00
2023-04-11T04:14:48.768Z,94924.00
2023-04-11T04:15:48.751Z,94922.00
2023-04-11T04:16:48.780Z,94922.00
2023-04-11T04:17:48.775Z,94920.00
2023-04-11T04:18:48.741Z,94916.00
2023-04-11T04:19:48.729Z,94914.00
2023-04-11T04:20:48.746Z,94918.00
2023-04-11T04:21:48.788Z,94920.00
2023-04-11T04:22:48.697Z,94924.00
2023-04-11T04:23:48.726Z,94926.00
2023-04-11T04:24:48.692Z,94928.00
2023-04-11T04:25:48.710Z,94928.00
2023-04-11T04:26:48.700Z,94928.00
2023-04-11T04:27:48.675Z,94931.00
2023-04-11T04:28:48.673Z,94931.00
2023-04-11T04:29:52.038Z,94929.00
2023-04-11T04:30:48.693Z,94928.00
2023-04-11T04:31:48.740Z,94928.00
2023-04-11T04:32:48.702Z,94928.00
2023-04-11T04:33:48.659Z,94929.00
2023-04-11T04:34:48.625Z,94928.00
2023-04-11T04:35:48.636Z,94926.00
2023-04-11T04:36:48.606Z,94928.00
2023-04-11T04:37:48.589Z,94929.00
2023-04-11T04:38:48.581Z,94929.00
2023-04-11T04:39:48.559Z,94931.00
2023-04-11T04:40:50.174Z,94929.00
2023-04-11T04:41:48.541Z,94929.00
2023-04-11T04:42:48.565Z,94928.00
2023-04-11T04:43:48.533Z,94928.00
2023-04-11T04:44:48.500Z,94929.00
2023-04-11T04:45:48.518Z,94926.00
2023-04-11T04:46:48.477Z,94920.00
2023-04-11T04:47:48.477Z,94914.00
2023-04-11T04:48:48.457Z,94908.00
2023-04-11T04:49:48.451Z,94904.00
2023-04-11T04:50:48.424Z,94904.00
2023-04-11T04:51:48.416Z,94904.00
2023-04-11T04:52:48.421Z,94906.00
2023-04-11T04:53:48.427Z,94906.00
2023-04-11T04:54:48.376Z,94908.00
2023-04-11T04:55:48.358Z,94906.00
2023-04-11T04:56:48.414Z,94906.00
2023-04-11T04:57:48.340Z,94906.00
2023-04-11T04:58:48.375Z,94904.00
2023-04-11T04:59:48.302Z,94904.00
2023-04-11T05:00:48.320Z,94906.00
2023-04-11T05:01:48.344Z,94906.00
2023-04-11T05:02:48.417Z,94908.00
2023-04-11T05:03:48.399Z,94908.00
2023-04-11T05:04:48.250Z,94912.00
2023-04-11T05:05:48.246Z,94908.00
2023-04-11T05:06:48.231Z,94904.00
2023-04-11T05:07:48.209Z,94902.00
2023-04-11T05:08:48.198Z,94902.00
2023-04-11T05:09:48.202Z,94900.00
2023-04-11T05:10:48.184Z,94904.00
2023-04-11T05:11:48.152Z,94910.00
2023-04-11T05:12:48.133Z,94914.00
2023-04-11T05:13:48.118Z,94904.00
2023-04-11T05:14:48.206Z,94898.00
2023-04-11T05:15:48.111Z,94880.00
2023-04-11T05:16:48.101Z,94880.00
2023-04-11T05:17:48.109Z,94876.00
2023-04-11T05:18:48.054Z,94880.00
2023-04-11T05:19:48.032Z,94873.00
2023-04-11T05:20:48.017Z,94869.00
2023-04-11T05:21:48.084Z,94867.00
2023-04-11T05:22:48.277Z,94871.00
2023-04-11T05:23:48.110Z,94861.00
2023-04-11T05:24:47.959Z,94859.00
2023-04-11T05:25:47.938Z,94863.00
2023-04-11T05:26:48.253Z,94865.00
2023-04-11T05:27:47.923Z,94867.00
2023-04-11T05:28:47.938Z,94869.00
2023-04-11T05:29:47.871Z,94873.00
2023-04-11T05:30:49.351Z,94875.00
2023-04-11T05:31:48.623Z,94871.00
2023-04-11T05:32:47.935Z,94873.00
2023-04-11T05:33:48.669Z,94875.00
2023-04-11T05:34:47.881Z,94880.00
2023-04-11T05:35:47.923Z,94876.00
2023-04-11T05:36:48.093Z,94876.00
2023-04-11T05:37:47.874Z,94876.00
2023-04-11T05:38:47.889Z,94878.00
2023-04-11T05:39:48.599Z,94882.00
2023-04-11T05:40:47.882Z,94896.00
2023-04-11T05:41:48.099Z,94896.00
2023-04-11T05:42:47.896Z,94898.00
2023-04-11T05:43:47.883Z,94900.00
2023-04-11T05:44:48.088Z,94904.00
2023-04-11T05:45:48.197Z,94908.00
2023-04-11T05:46:47.886Z,94912.00
2023-04-11T05:47:47.904Z,94918.00
2023-04-11T05:48:48.218Z,94920.00
2023-04-11T05:49:48.124Z,94916.00
2023-04-11T05:50:47.868Z,94912.00
2023-04-11T05:51:47.842Z,94912.00
2023-04-11T05:52:48.119Z,94914.00
2023-04-11T05:53:48.202Z,94908.00
2023-04-11T05:54:47.848Z,94910.00
2023-04-11T05:55:47.800Z,94912.00
2023-04-11T05:56:47.784Z,94916.00
2023-04-11T05:57:48.192Z,94916.00
2023-04-11T05:58:47.948Z,94922.00
2023-04-11T05:59:48.184Z,94924.00
2023-04-11T06:00:47.851Z,94922.00
2023-04-11T06:01:47.822Z,94924.00
2023-04-11T06:02:48.015Z,94920.00
2023-04-11T06:03:47.833Z,94918.00
2023-04-11T06:04:51.362Z,94916.00
2023-04-11T06:05:47.767Z,94912.00
2023-04-11T06:06:55.118Z,94914.00
2023-04-11T06:07:47.726Z,94914.00
2023-04-11T06:08:47.715Z,94908.00
2023-04-11T06:09:48.130Z,94908.00
2023-04-11T06:10:47.708Z,94908.00
2023-04-11T06:11:47.703Z,94902.00
2023-04-11T06:12:47.695Z,94898.00
2023-04-11T06:13:48.211Z,94894.00
2023-04-11T06:14:47.680Z,94892.00
2023-04-11T06:15:47.698Z,94896.00
2023-04-11T06:16:47.677Z,94896.00
2023-04-11T06:17:47.739Z,94898.00
2023-04-11T06:18:48.132Z,94896.00
2023-04-11T06:19:47.631Z,94882.00
2023-04-11T06:20:48.026Z,94876.00
2023-04-11T06:21:48.097Z,94873.00
2023-04-11T06:22:47.623Z,94869.00
2023-04-11T06:23:48.134Z,94869.00
2023-04-11T06:24:48.600Z,94865.00
2023-04-11T06:25:48.605Z,94865.00
2023-04-11T06:26:47.615Z,94861.00
2023-04-11T06:27:47.625Z,94861.00
2023-04-11T06:28:47.629Z,94859.00
2023-04-11T06:29:47.595Z,94859.00
2023-04-11T06:30:47.622Z,94861.00
2023-04-11T06:31:47.652Z,94863.00
2023-04-11T06:32:47.779Z,94859.00
2023-04-11T06:33:47.610Z,94863.00
2023-04-11T06:34:47.625Z,94857.00
2023-04-11T06:35:47.647Z,94853.00
2023-04-11T06:36:47.592Z,94851.00
2023-04-11T06:37:47.652Z,94851.00
2023-04-11T06:38:47.600Z,94853.00
2023-04-11T06:39:47.667Z,94857.00
2023-04-11T06:40:47.672Z,94859.00
2023-04-11T06:41:47.721Z,94863.00
2023-04-11T06:42:48.125Z,94867.00
2023-04-11T06:43:47.759Z,94865.00
2023-04-11T06:44:47.845Z,94867.00
2023-04-11T06:45:47.820Z,94865.00
2023-04-11T06:46:47.880Z,94865.00
2023-04-11T06:47:49.166Z,94863.00
2023-04-11T06:48:48.121Z,94861.00
2023-04-11T06:49:47.923Z,94857.00
2023-04-11T06:50:47.938Z,94857.00
2023-04-11T06:51:48.436Z,94855.00
2023-04-11T06:52:48.156Z,94855.00
2023-04-11T06:53:47.982Z,94849.00
2023-04-11T06:54:48.115Z,94845.00
2023-04-11T06:55:51.307Z,94843.00
2023-04-11T06:56:48.078Z,94841.00
2023-04-11T06:57:48.072Z,94843.00
2023-04-11T06:58:48.065Z,94843.00
2023-04-11T06:59:48.187Z,94841.00
2023-04-11T07:00:48.072Z,94843.00
2023-04-11T07:01:48.132Z,94843.00
2023-04-11T07:02:48.445Z,94845.00
2023-04-11T07:03:48.495Z,94845.00
2023-04-11T07:04:48.113Z,94845.00
2023-04-11T07:05:48.105Z,94843.00
2023-04-11T07:06:48.144Z,94845.00
2023-04-11T07:07:48.090Z,94847.00
2023-04-11T07:08:48.198Z,94849.00
2023-04-11T07:09:48.073Z,94853.00
2023-04-11T07:10:48.058Z,94851.00
2023-04-11T07:11:48.103Z,94851.00
2023-04-11T07:12:48.145Z,94853.00
2023-04-11T07:13:48.628Z,94847.00
2023-04-11T07:14:48.177Z,94845.00
2023-04-11T07:15:48.241Z,94851.00
2023-04-11T07:16:48.254Z,94855.00
2023-04-11T07:17:50.249Z,94859.00
2023-04-11T07:18:48.292Z,94861.00
2023-04-11T07:19:48.270Z,94859.00
2023-04-11T07:20:48.625Z,94861.00
2023-04-11T07:21:48.248Z,94861.00
2023-04-11T07:22:48.287Z,94867.00
2023-04-11T07:23:48.276Z,94869.00
2023-04-11T07:24:48.217Z,94867.00
2023-04-11T07:25:48.675Z,94869.00
2023-04-11T07:26:48.200Z,94869.00
2023-04-11T07:27:48.184Z,94873.00
2023-04-11T07:28:48.174Z,94873.00
2023-04-11T07:29:48.187Z,94876.00
2023-04-11T07:30:48.694Z,94873.00
2023-04-11T07:31:48.181Z,94875.00
2023-04-11T07:32:48.622Z,94880.00
2023-04-11T07:33:48.127Z,94878.00
2023-04-11T07:34:48.384Z,94873.00
2023-04-11T07:35:48.154Z,94876.00
2023-04-11T07:36:48.094Z,94878.00
2023-04-11T07:37:48.098Z,94878.00
2023-04-11T07:38:48.108Z,94878.00
2023-04-11T07:39:48.126Z,94876.00
2023-04-11T07:40:48.138Z,94871.00
2023-04-11T07:41:51.242Z,94873.00
2023-04-11T07:42:48.054Z,94875.00
2023-04-11T07:43:48.500Z,94869.00
2023-04-11T07:44:48.036Z,94867.00
2023-04-11T07:45:48.060Z,94867.00
2023-04-11T07:46:48.029Z,94867.00
2023-04-11T07:47:48.105Z,94863.00
2023-04-11T07:48:49.253Z,94863.00
2023-04-11T07:49:48.001Z,94863.00
2023-04-11T07:50:47.992Z,94863.00
2023-04-11T07:51:48.014Z,94865.00
2023-04-11T07:52:48.188Z,94865.00
2023-04-11T07:53:47.999Z,94863.00
2023-04-11T07:54:48.022Z,94863.00
2023-04-11T07:55:47.989Z,94865.00
2023-04-11T07:56:48.137Z,94867.00
2023-04-11T07:57:48.551Z,94863.00
2023-04-11T07:58:47.987Z,94863.00
2023-04-11T07:59:47.999Z,94865.00
2023-04-11T08:00:48.249Z,94871.00
2023-04-11T08:01:48.653Z,94873.00
2023-04-11T08:02:48.636Z,94873.00
2023-04-11T08:03:48.740Z,94875.00
2023-04-11T08:04:55.140Z,94878.00
2023-04-11T08:05:48.617Z,94878.00
2023-04-11T08:06:48.246Z,94890.00
2023-04-11T08:07:47.910Z,94880.00
2023-04-11T08:08:48.174Z,94882.00
2023-04-11T08:09:47.947Z,94882.00
2023-04-11T08:10:49.499Z,94876.00
2023-04-11T08:11:48.177Z,94875.00
2023-04-11T08:12:47.949Z,94876.00
2023-04-11T08:13:48.982Z,94875.00
2023-04-11T08:14:47.919Z,94876.00
2023-04-11T08:15:47.928Z,94876.00
2023-04-11T08:16:47.900Z,94876.00
2023-04-11T08:17:48.919Z,94878.00
2023-04-11T08:18:48.360Z,94880.00
2023-04-11T08:19:47.882Z,94880.00
2023-04-11T08:20:47.848Z,94880.00
2023-04-11T08:21:47.849Z,94880.00
2023-04-11T08:22:47.841Z,94880.00
2023-04-11T08:23:48.319Z,94878.00
2023-04-11T08:24:47.826Z,94876.00
2023-04-11T08:25:48.182Z,94878.00
2023-04-11T08:26:48.238Z,94882.00
2023-04-11T08:27:47.799Z,94890.00
2023-04-11T08:28:47.820Z,94890.00
2023-04-11T08:29:47.801Z,94892.00
2023-04-11T08:30:48.248Z,94894.00
2023-04-11T08:31:48.188Z,94896.00
2023-04-11T08:32:47.787Z,94892.00
2023-04-11T08:33:48.200Z,94896.00
2023-04-11T08:34:47.701Z,94900.00
2023-04-11T08:35:47.712Z,94898.00
2023-04-11T08:36:47.715Z,94896.00
2023-04-11T08:37:47.880Z,94898.00
2023-04-11T08:38:47.693Z,94898.00
2023-04-11T08:39:47.661Z,94898.00
2023-04-11T08:40:47.634Z,94904.00
2023-04-11T08:41:46.614Z,94902.00
2023-04-11T08:42:47.652Z,94908.00
2023-04-11T08:43:47.802Z,94912.00
2023-04-11T08:44:49.180Z,94910.00
2023-04-11T08:45:48.180Z,94914.00
2023-04-11T08:46:48.068Z,94914.00
2023-04-11T08:47:47.687Z,94908.00
2023-04-11T08:48:47.675Z,94910.00
2023-04-11T08:49:47.743Z,94912.00
2023-04-11T08:50:48.198Z,94908.00
2023-04-11T08:51:47.838Z,94906.00
2023-04-11T08:52:47.645Z,94914.00
2023-04-11T08:53:48.493Z,94912.00
2023-04-11T08:54:47.749Z,94908.00
2023-04-11T08:55:47.876Z,94912.00
2023-04-11T08:56:48.005Z,94912.00
2023-04-11T08:57:47.853Z,94916.00
2023-04-11T08:58:48.472Z,94916.00
2023-04-11T08:59:47.761Z,94912.00
2023-04-11T09:00:47.681Z,94910.00
2023-04-11T09:01:47.745Z,94912.00
2023-04-11T09:02:47.868Z,94914.00
2023-04-11T09:03:47.707Z,94916.00
2023-04-11T09:04:47.870Z,94924.00
2023-04-11T09:05:47.694Z,94924.00
2023-04-11T09:06:47.874Z,94924.00
2023-04-11T09:07:47.781Z,94918.00
2023-04-11T09:08:47.657Z,94916.00
2023-04-11T09:09:47.666Z,94918.00
2023-04-11T09:10:47.695Z,94914.00
2023-04-11T09:11:47.957Z,94916.00
2023-04-11T09:12:48.448Z,94912.00
2023-04-11T09:13:48.206Z,94912.00
2023-04-11T09:14:48.310Z,94918.00
2023-04-11T09:15:47.734Z,94920.00
2023-04-11T09:16:47.710Z,94920.00
2023-04-11T09:17:47.759Z,94924.00
2023-04-11T09:18:47.713Z,94926.00
2023-04-11T09:19:49.298Z,94929.00
2023-04-11T09:20:47.779Z,94929.00
2023-04-11T09:21:47.720Z,94928.00
2023-04-11T09:22:47.726Z,94924.00
2023-04-11T09:23:48.231Z,94922.00
2023-04-11T09:24:47.703Z,94922.00
2023-04-11T09:25:47.722Z,94922.00
2023-04-11T09:26:47.708Z,94926.00
2023-04-11T09:27:47.693Z,94926.00
2023-04-11T09:28:47.706Z,94929.00
2023-04-11T09:29:47.701Z,94929.00
2023-04-11T09:30:47.716Z,94931.00
2023-04-11T09:31:47.723Z,94933.00
2023-04-11T09:32:47.707Z,94931.00
2023-04-11T09:33:47.707Z,94933.00
2023-04-11T09:34:47.639Z,94935.00
2023-04-11T09:35:47.646Z,94931.00
2023-04-11T09:36:47.628Z,94933.00
2023-04-11T09:37:47.632Z,94931.00
2023-04-11T09:38:47.875Z,94929.00
2023-04-11T09:39:47.642Z,94928.00
2023-04-11T09:40:47.714Z,94929.00
2023-04-11T09:41:47.723Z,94929.00
2023-04-11T09:42:47.558Z,94929.00
2023-04-11T09:43:47.564Z,94931.00
2023-04-11T09:44:47.540Z,94933.00
2023-04-11T09:45:54.636Z,94933.00
2023-04-11T09:46:47.556Z,94931.00
2023-04-11T09:47:47.530Z,94929.00
2023-04-11T09:48:47.488Z,94924.00
2023-04-11T09:49:47.465Z,94922.00
2023-04-11T09:50:47.482Z,94920.00
2023-04-11T09:51:48.222Z,94920.00
2023-04-11T09:52:47.475Z,94920.00
2023-04-11T09:53:47.847Z,94928.00
2023-04-11T09:54:47.459Z,94929.00
2023-04-11T09:55:47.415Z,94933.00
2023-04-11T09:56:47.439Z,94933.00
2023-04-11T09:57:47.774Z,94928.00
2023-04-11T09:58:47.376Z,94918.00
2023-04-11T09:59:47.377Z,94908.00
2023-04-11T10:00:47.371Z,94914.00
2023-04-11T10:01:47.804Z,94920.00
2023-04-11T10:02:47.532Z,94926.00
2023-04-11T10:03:47.760Z,94926.00
2023-04-11T10:04:47.370Z,94928.00
2023-04-11T10:05:48.872Z,94926.00
2023-04-11T10:06:48.547Z,94924.00
2023-04-11T10:07:47.722Z,94922.00
2023-04-11T10:08:47.334Z,94924.00
2023-04-11T10:09:47.267Z,94922.00
2023-04-11T10:10:47.839Z,94928.00
2023-04-11T10:11:47.724Z,94928.00
2023-04-11T10:12:47.229Z,94928.00
2023-04-11T10:13:47.222Z,94924.00
2023-04-11T10:14:47.191Z,94922.00
2023-04-11T10:15:47.171Z,94916.00
2023-04-11T10:16:47.163Z,94920.00
2023-04-11T10:17:47.249Z,94918.00
2023-04-11T10:18:47.138Z,94912.00
2023-04-11T10:19:47.092Z,94906.00
2023-04-11T10:20:47.084Z,94904.00
2023-04-11T10:21:47.067Z,94908.00
2023-04-11T10:22:47.245Z,94912.00
2023-04-11T10:23:47.023Z,94912.00
2023-04-11T10:24:47.009Z,94914.00
2023-04-11T10:25:47.091Z,94910.00
2023-04-11T10:26:47.499Z,94918.00
2023-04-11T10:27:47.212Z,94914.00
2023-04-11T10:28:47.300Z,94912.00
2023-04-11T10:29:48.373Z,94908.00
2023-04-11T10:30:47.000Z,94908.00
2023-04-11T10:31:47.048Z,94912.00
2023-04-11T10:32:47.824Z,94916.00
2023-04-11T10:33:47.218Z,94914.00
2023-04-11T10:34:47.011Z,94914.00
2023-04-11T10:35:46.973Z,94910.00
2023-04-11T10:36:46.927Z,94914.00
2023-04-11T10:37:48.263Z,94914.00
2023-04-11T10:38:47.321Z,94916.00
2023-04-11T10:39:46.887Z,94916.00
2023-04-11T10:40:46.891Z,94916.00
2023-04-11T10:41:46.901Z,94918.00
2023-04-11T10:42:46.863Z,94918.00
2023-04-11T10:43:47.241Z,94916.00
2023-04-11T10:44:46.855Z,94926.00
2023-04-11T10:45:46.850Z,94929.00
2023-04-11T10:46:46.886Z,94935.00
2023-04-11T10:47:46.829Z,94931.00
2023-04-11T10:48:47.302Z,94928.00
2023-04-11T10:49:47.366Z,94931.00
2023-04-11T10:50:46.941Z,94935.00
2023-04-11T10:51:46.959Z,94933.00
2023-04-11T10:52:47.015Z,94937.00
2023-04-11T10:53:47.269Z,94937.00
2023-04-11T10:54:47.115Z,94939.00
2023-04-11T10:55:47.152Z,94941.00
2023-04-11T10:56:47.194Z,94945.00
2023-04-11T10:57:47.288Z,94949.00
2023-04-11T10:58:47.740Z,94953.00
2023-04-11T10:59:47.312Z,94957.00
2023-04-11T11:00:47.374Z,94959.00
2023-04-11T11:01:52.370Z,94957.00
2023-04-11T11:02:47.523Z,94955.00
2023-04-11T11:03:47.820Z,94957.00
2023-04-11T11:04:47.585Z,94957.00
2023-04-11T11:05:48.272Z,94955.00
2023-04-11T11:06:56.724Z,94959.00
2023-04-11T11:07:47.811Z,94957.00
2023-04-11T11:08:47.288Z,94967.00
2023-04-11T11:09:47.206Z,94969.00
2023-04-11T11:10:47.276Z,94973.00
2023-04-11T11:11:47.248Z,94973.00
2023-04-11T11:12:47.276Z,94978.00
2023-04-11T11:13:47.212Z,94978.00
2023-04-11T11:14:47.211Z,94980.00
2023-04-11T11:15:47.061Z,94982.00
2023-04-11T11:16:47.045Z,94984.00
2023-04-11T11:17:47.277Z,94982.00
2023-04-11T11:18:46.955Z,94986.00
2023-04-11T11:19:46.964Z,94990.00
2023-04-11T11:20:47.135Z,94994.00
2023-04-11T11:21:46.875Z,94998.00
2023-04-11T11:22:47.363Z,94994.00
2023-04-11T11:23:47.616Z,94986.00
2023-04-11T11:24:46.840Z,94982.00
2023-04-11T11:25:46.857Z,94992.00
2023-04-11T11:26:46.825Z,94994.00
2023-04-11T11:27:46.828Z,94996.00
2023-04-11T11:28:46.827Z,95000.00
2023-04-11T11:29:47.230Z,94998.00
2023-04-11T11:30:46.826Z,94998.00
2023-04-11T11:31:46.921Z,95002.00
2023-04-11T11:32:46.855Z,94994.00
2023-04-11T11:33:46.900Z,95000.00
2023-04-11T11:34:47.234Z,94994.00
2023-04-11T11:35:47.002Z,94986.00
2023-04-11T11:36:47.109Z,94986.00
2023-04-11T11:37:47.264Z,94990.00
2023-04-11T11:38:47.151Z,95002.00
2023-04-11T11:39:47.147Z,94996.00
2023-04-11T11:40:47.175Z,95006.00
2023-04-11T11:41:47.180Z,95006.00
2023-04-11T11:42:47.302Z,95004.00
2023-04-11T11:43:47.159Z,95010.00
2023-04-11T11:44:47.152Z,95008.00